sensor_id;sensor_type;location;lat;lon;timestamp;pressure;altitude;pressure_sealevel;temperature;humidity
69524;BME280;56723;42.694;23.286;2022-09-09T00:00:54;95290.09;;;17.21;76.23
69524;BME280;56723;42.694;23.286;2022-09-09T00:03:26;95284.44;;;17.11;77.24
69524;BME280;56723;42.694;23.286;2022-09-09T00:09:19;95283.59;;;16.98;77.44
69524;BME280;56723;42.694;23.286;2022-09-09T00:17:41;95286.03;;;16.99;78.73
69524;BME280;56723;42.694;23.286;2022-09-09T00:20:28;95279.97;;;16.99;78.63
69524;BME280;56723;42.694;23.286;2022-09-09T00:23:06;95265.50;;;17.03;78.65
69524;BME280;56723;42.694;23.286;2022-09-09T00:25:53;95268.31;;;17.08;78.68
69524;BME280;56723;42.694;23.286;2022-09-09T00:28:24;95256.44;;;17.05;80.03
69524;BME280;56723;42.694;23.286;2022-09-09T00:30:52;95257.03;;;17.07;79.61
69524;BME280;56723;42.694;23.286;2022-09-09T00:33:23;95253.41;;;17.08;80.13
69524;BME280;56723;42.694;23.286;2022-09-09T00:35:54;95238.91;;;17.06;80.34
69524;BME280;56723;42.694;23.286;2022-09-09T00:38:36;95235.31;;;17.07;80.14
69524;BME280;56723;42.694;23.286;2022-09-09T00:41:13;95240.31;;;17.08;80.30
69524;BME280;56723;42.694;23.286;2022-09-09T00:43:49;95239.72;;;17.06;80.51
69524;BME280;56723;42.694;23.286;2022-09-09T00:49:18;95252.56;;;16.81;82.29
69524;BME280;56723;42.694;23.286;2022-09-09T00:52:12;95254.94;;;16.70;83.49
69524;BME280;56723;42.694;23.286;2022-09-09T00:55:03;95250.84;;;16.60;84.74
69524;BME280;56723;42.694;23.286;2022-09-09T00:57:34;95239.75;;;16.52;84.89
69524;BME280;56723;42.694;23.286;2022-09-09T01:10:59;95246.94;;;16.37;86.89
69524;BME280;56723;42.694;23.286;2022-09-09T01:13:33;95251.97;;;16.32;86.90
69524;BME280;56723;42.694;23.286;2022-09-09T01:16:08;95256.19;;;16.33;87.31
69524;BME280;56723;42.694;23.286;2022-09-09T01:18:43;95253.16;;;16.36;87.22
69524;BME280;56723;42.694;23.286;2022-09-09T01:21:41;95254.81;;;16.43;86.81
69524;BME280;56723;42.694;23.286;2022-09-09T01:27:13;95242.53;;;16.44;85.80
69524;BME280;56723;42.694;23.286;2022-09-09T01:29:41;95246.59;;;16.46;85.62
69524;BME280;56723;42.694;23.286;2022-09-09T01:35:04;95253.78;;;16.31;86.50
69524;BME280;56723;42.694;23.286;2022-09-09T01:37:33;95253.06;;;16.16;86.82
69524;BME280;56723;42.694;23.286;2022-09-09T01:40:00;95263.53;;;16.16;87.41
69524;BME280;56723;42.694;23.286;2022-09-09T01:42:29;95263.94;;;16.19;87.89
69524;BME280;56723;42.694;23.286;2022-09-09T01:44:57;95258.72;;;16.19;88.03
69524;BME280;56723;42.694;23.286;2022-09-09T01:47:25;95263.56;;;16.22;87.95
69524;BME280;56723;42.694;23.286;2022-09-09T01:50:10;95270.41;;;16.23;87.49
69524;BME280;56723;42.694;23.286;2022-09-09T01:52:38;95266.56;;;16.19;84.32
69524;BME280;56723;42.694;23.286;2022-09-09T01:55:09;95266.75;;;16.11;84.28
69524;BME280;56723;42.694;23.286;2022-09-09T02:00:15;95269.75;;;16.08;85.85
69524;BME280;56723;42.694;23.286;2022-09-09T02:02:58;95265.50;;;16.07;86.28
69524;BME280;56723;42.694;23.286;2022-09-09T02:05:44;95266.75;;;16.11;86.99
69524;BME280;56723;42.694;23.286;2022-09-09T02:08:26;95265.84;;;15.98;84.96
69524;BME280;56723;42.694;23.286;2022-09-09T02:11:11;95267.00;;;15.88;85.33
69524;BME280;56723;42.694;23.286;2022-09-09T02:13:48;95246.66;;;15.84;85.88
69524;BME280;56723;42.694;23.286;2022-09-09T02:19:01;95255.13;;;15.86;87.03
69524;BME280;56723;42.694;23.286;2022-09-09T02:21:42;95248.47;;;15.83;86.43
69524;BME280;56723;42.694;23.286;2022-09-09T02:24:12;95247.22;;;15.73;86.58
69524;BME280;56723;42.694;23.286;2022-09-09T02:26:49;95260.03;;;15.68;87.36
69524;BME280;56723;42.694;23.286;2022-09-09T02:29:24;95255.16;;;15.58;87.87
69524;BME280;56723;42.694;23.286;2022-09-09T02:31:55;95257.94;;;15.56;88.17
69524;BME280;56723;42.694;23.286;2022-09-09T02:34:31;95250.03;;;15.50;88.35
69524;BME280;56723;42.694;23.286;2022-09-09T02:37:03;95260.66;;;15.48;88.75
69524;BME280;56723;42.694;23.286;2022-09-09T02:39:31;95272.72;;;15.49;89.36
69524;BME280;56723;42.694;23.286;2022-09-09T02:41:58;95271.91;;;15.49;90.11
69524;BME280;56723;42.694;23.286;2022-09-09T02:44:30;95264.63;;;15.44;88.76
69524;BME280;56723;42.694;23.286;2022-09-09T02:47:06;95275.53;;;15.48;88.98
69524;BME280;56723;42.694;23.286;2022-09-09T02:52:13;95268.25;;;15.43;88.19
69524;BME280;56723;42.694;23.286;2022-09-09T02:54:42;95266.25;;;15.45;88.65
69524;BME280;56723;42.694;23.286;2022-09-09T02:57:24;95265.78;;;15.56;89.52
69524;BME280;56723;42.694;23.286;2022-09-09T02:59:56;95272.41;;;15.59;89.63
69524;BME280;56723;42.694;23.286;2022-09-09T03:02:24;95266.41;;;15.58;89.31
69524;BME280;56723;42.694;23.286;2022-09-09T03:04:57;95274.16;;;15.52;87.04
69524;BME280;56723;42.694;23.286;2022-09-09T03:07:24;95271.53;;;15.52;88.33
69524;BME280;56723;42.694;23.286;2022-09-09T03:09:51;95257.94;;;15.56;88.65
69524;BME280;56723;42.694;23.286;2022-09-09T03:12:24;95267.25;;;15.66;87.30
69524;BME280;56723;42.694;23.286;2022-09-09T03:14:51;95271.34;;;15.75;87.53
69524;BME280;56723;42.694;23.286;2022-09-09T03:17:18;95270.13;;;15.77;86.98
69524;BME280;56723;42.694;23.286;2022-09-09T03:19:50;95263.50;;;15.75;86.64
69524;BME280;56723;42.694;23.286;2022-09-09T03:22:19;95264.25;;;15.69;87.08
69524;BME280;56723;42.694;23.286;2022-09-09T03:24:46;95265.63;;;15.65;87.83
69524;BME280;56723;42.694;23.286;2022-09-09T03:27:14;95257.41;;;15.68;87.31
69524;BME280;56723;42.694;23.286;2022-09-09T03:29:41;95269.75;;;15.80;85.52
69524;BME280;56723;42.694;23.286;2022-09-09T03:32:12;95265.53;;;15.79;86.07
69524;BME280;56723;42.694;23.286;2022-09-09T03:34:39;95261.34;;;15.85;85.34
69524;BME280;56723;42.694;23.286;2022-09-09T03:37:10;95260.16;;;15.87;85.54
69524;BME280;56723;42.694;23.286;2022-09-09T03:39:38;95266.19;;;15.88;83.12
69524;BME280;56723;42.694;23.286;2022-09-09T03:42:07;95260.53;;;15.84;83.51
69524;BME280;56723;42.694;23.286;2022-09-09T03:44:34;95260.53;;;15.84;83.73
69524;BME280;56723;42.694;23.286;2022-09-09T03:47:01;95266.56;;;15.85;83.56
69524;BME280;56723;42.694;23.286;2022-09-09T03:49:28;95265.56;;;15.86;84.35
69524;BME280;56723;42.694;23.286;2022-09-09T03:51:56;95270.44;;;15.89;84.08
69524;BME280;56723;42.694;23.286;2022-09-09T03:54:24;95270.63;;;15.87;84.05
69524;BME280;56723;42.694;23.286;2022-09-09T03:56:51;95278.66;;;15.86;84.27
69524;BME280;56723;42.694;23.286;2022-09-09T03:59:20;95263.72;;;15.80;84.79
69524;BME280;56723;42.694;23.286;2022-09-09T04:01:47;95264.91;;;15.77;84.97
69524;BME280;56723;42.694;23.286;2022-09-09T04:04:15;95265.88;;;15.70;85.74
69524;BME280;56723;42.694;23.286;2022-09-09T04:06:42;95272.09;;;15.69;85.82
69524;BME280;56723;42.694;23.286;2022-09-09T04:09:09;95272.66;;;15.64;86.08
69524;BME280;56723;42.694;23.286;2022-09-09T04:11:36;95282.72;;;15.67;86.41
69524;BME280;56723;42.694;23.286;2022-09-09T04:14:03;95273.34;;;15.73;86.20
69524;BME280;56723;42.694;23.286;2022-09-09T04:16:33;95271.72;;;15.72;84.58
69524;BME280;56723;42.694;23.286;2022-09-09T04:19:03;95265.19;;;15.61;85.18
69524;BME280;56723;42.694;23.286;2022-09-09T04:21:30;95262.72;;;15.53;85.55
69524;BME280;56723;42.694;23.286;2022-09-09T04:23:59;95266.25;;;15.45;86.08
69524;BME280;56723;42.694;23.286;2022-09-09T04:26:26;95273.47;;;15.43;86.02
69524;BME280;56723;42.694;23.286;2022-09-09T04:28:53;95280.13;;;15.46;86.16
69524;BME280;56723;42.694;23.286;2022-09-09T04:31:23;95285.09;;;15.41;87.00
69524;BME280;56723;42.694;23.286;2022-09-09T04:33:53;95285.06;;;15.34;87.04
69524;BME280;56723;42.694;23.286;2022-09-09T04:36:20;95277.59;;;15.31;87.69
69524;BME280;56723;42.694;23.286;2022-09-09T04:38:50;95266.28;;;15.24;88.16
69524;BME280;56723;42.694;23.286;2022-09-09T04:41:17;95282.63;;;15.33;88.01
69524;BME280;56723;42.694;23.286;2022-09-09T04:43:48;95287.91;;;15.39;88.26
69524;BME280;56723;42.694;23.286;2022-09-09T04:46:16;95282.28;;;15.42;87.82
69524;BME280;56723;42.694;23.286;2022-09-09T04:48:46;95275.41;;;15.35;88.58
69524;BME280;56723;42.694;23.286;2022-09-09T04:51:14;95274.25;;;15.37;88.98
69524;BME280;56723;42.694;23.286;2022-09-09T04:53:43;95257.56;;;15.38;88.89
69524;BME280;56723;42.694;23.286;2022-09-09T04:56:13;95266.78;;;15.55;88.88
69524;BME280;56723;42.694;23.286;2022-09-09T04:58:49;95272.97;;;15.76;87.91
69524;BME280;56723;42.694;23.286;2022-09-09T05:01:18;95267.94;;;15.81;86.84
69524;BME280;56723;42.694;23.286;2022-09-09T05:03:47;95266.19;;;15.88;86.90
69524;BME280;56723;42.694;23.286;2022-09-09T05:06:20;95245.09;;;15.89;86.30
69524;BME280;56723;42.694;23.286;2022-09-09T05:08:51;95240.94;;;16.02;85.65
69524;BME280;56723;42.694;23.286;2022-09-09T05:11:25;95247.63;;;16.11;85.89
69524;BME280;56723;42.694;23.286;2022-09-09T05:13:58;95260.53;;;16.12;85.41
69524;BME280;56723;42.694;23.286;2022-09-09T05:16:26;95268.38;;;16.19;85.26
69524;BME280;56723;42.694;23.286;2022-09-09T05:18:54;95260.19;;;16.28;83.66
69524;BME280;56723;42.694;23.286;2022-09-09T05:21:22;95246.31;;;16.35;82.60
69524;BME280;56723;42.694;23.286;2022-09-09T05:23:49;95248.41;;;16.46;82.33
69524;BME280;56723;42.694;23.286;2022-09-09T05:26:21;95247.19;;;16.55;81.27
69524;BME280;56723;42.694;23.286;2022-09-09T05:28:50;95249.44;;;16.58;81.41
69524;BME280;56723;42.694;23.286;2022-09-09T05:31:18;95255.28;;;16.60;81.38
69524;BME280;56723;42.694;23.286;2022-09-09T05:33:49;95259.97;;;16.71;81.24
69524;BME280;56723;42.694;23.286;2022-09-09T05:36:18;95259.81;;;16.79;80.60
69524;BME280;56723;42.694;23.286;2022-09-09T05:38:49;95252.97;;;16.85;79.93
69524;BME280;56723;42.694;23.286;2022-09-09T05:41:18;95254.59;;;16.99;79.48
69524;BME280;56723;42.694;23.286;2022-09-09T05:43:46;95265.72;;;17.14;78.19
69524;BME280;56723;42.694;23.286;2022-09-09T05:46:17;95265.13;;;17.19;77.82
69524;BME280;56723;42.694;23.286;2022-09-09T05:48:48;95265.13;;;17.19;77.69
69524;BME280;56723;42.694;23.286;2022-09-09T05:51:26;95267.31;;;17.28;77.24
69524;BME280;56723;42.694;23.286;2022-09-09T05:53:55;95259.88;;;17.32;76.25
69524;BME280;56723;42.694;23.286;2022-09-09T05:56:28;95268.38;;;17.41;76.25
69524;BME280;56723;42.694;23.286;2022-09-09T05:58:58;95267.94;;;17.50;75.37
69524;BME280;56723;42.694;23.286;2022-09-09T06:01:30;95270.16;;;17.53;75.43
69524;BME280;56723;42.694;23.286;2022-09-09T06:03:59;95275.63;;;17.65;75.58
69524;BME280;56723;42.694;23.286;2022-09-09T06:06:31;95283.50;;;17.72;75.66
69524;BME280;56723;42.694;23.286;2022-09-09T06:09:09;95279.06;;;17.79;74.73
69524;BME280;56723;42.694;23.286;2022-09-09T06:11:40;95272.38;;;17.83;74.64
69524;BME280;56723;42.694;23.286;2022-09-09T06:14:09;95276.41;;;17.85;74.54
69524;BME280;56723;42.694;23.286;2022-09-09T06:16:37;95274.22;;;17.89;74.14
69524;BME280;56723;42.694;23.286;2022-09-09T06:19:11;95279.03;;;17.92;73.22
69524;BME280;56723;42.694;23.286;2022-09-09T06:21:40;95282.28;;;17.94;72.76
69524;BME280;56723;42.694;23.286;2022-09-09T06:24:08;95280.44;;;18.01;72.32
69524;BME280;56723;42.694;23.286;2022-09-09T06:26:39;95276.19;;;18.13;72.13
69524;BME280;56723;42.694;23.286;2022-09-09T06:29:12;95288.84;;;18.23;70.08
69524;BME280;56723;42.694;23.286;2022-09-09T06:31:41;95285.19;;;18.37;69.62
69524;BME280;56723;42.694;23.286;2022-09-09T06:34:19;95278.91;;;18.51;68.86
69524;BME280;56723;42.694;23.286;2022-09-09T06:36:50;95271.03;;;18.51;68.12
69524;BME280;56723;42.694;23.286;2022-09-09T06:39:18;95269.81;;;18.54;68.52
69524;BME280;56723;42.694;23.286;2022-09-09T06:41:45;95275.84;;;18.67;68.31
69524;BME280;56723;42.694;23.286;2022-09-09T06:44:31;95259.81;;;18.82;67.88
69524;BME280;56723;42.694;23.286;2022-09-09T06:47:02;95266.78;;;19.01;66.22
69524;BME280;56723;42.694;23.286;2022-09-09T06:49:31;95264.25;;;19.13;65.97
69524;BME280;56723;42.694;23.286;2022-09-09T06:52:00;95273.09;;;19.25;65.50
69524;BME280;56723;42.694;23.286;2022-09-09T06:54:28;95276.66;;;19.31;63.81
69524;BME280;56723;42.694;23.286;2022-09-09T06:56:55;95274.63;;;19.33;63.29
69524;BME280;56723;42.694;23.286;2022-09-09T06:59:24;95277.66;;;19.36;63.52
69524;BME280;56723;42.694;23.286;2022-09-09T07:01:53;95279.88;;;19.40;63.32
69524;BME280;56723;42.694;23.286;2022-09-09T07:04:23;95281.44;;;19.47;63.68
69524;BME280;56723;42.694;23.286;2022-09-09T07:06:50;95276.94;;;19.54;63.74
69524;BME280;56723;42.694;23.286;2022-09-09T07:09:39;95282.69;;;19.69;61.76
69524;BME280;56723;42.694;23.286;2022-09-09T07:12:07;95282.59;;;19.83;61.06
69524;BME280;56723;42.694;23.286;2022-09-09T07:14:38;95270.13;;;19.96;60.88
69524;BME280;56723;42.694;23.286;2022-09-09T07:17:09;95269.56;;;20.13;60.06
69524;BME280;56723;42.694;23.286;2022-09-09T07:19:38;95261.81;;;20.18;60.10
69524;BME280;56723;42.694;23.286;2022-09-09T07:22:05;95271.38;;;20.30;59.45
69524;BME280;56723;42.694;23.286;2022-09-09T07:24:34;95260.81;;;20.37;58.89
69524;BME280;56723;42.694;23.286;2022-09-09T07:27:01;95274.09;;;20.24;58.68
69524;BME280;56723;42.694;23.286;2022-09-09T07:29:30;95262.03;;;20.34;59.83
69524;BME280;56723;42.694;23.286;2022-09-09T07:31:57;95258.19;;;20.37;59.29
69524;BME280;56723;42.694;23.286;2022-09-09T07:34:31;95261.84;;;20.54;59.43
69524;BME280;56723;42.694;23.286;2022-09-09T07:36:58;95249.31;;;20.68;57.81
69524;BME280;56723;42.694;23.286;2022-09-09T07:39:25;95259.19;;;20.72;57.70
69524;BME280;56723;42.694;23.286;2022-09-09T07:41:53;95263.31;;;20.80;57.58
69524;BME280;56723;42.694;23.286;2022-09-09T07:44:24;95269.91;;;20.89;56.66
69524;BME280;56723;42.694;23.286;2022-09-09T07:47:17;95266.44;;;21.07;56.01
69524;BME280;56723;42.694;23.286;2022-09-09T07:49:47;95268.91;;;21.20;55.95
69524;BME280;56723;42.694;23.286;2022-09-09T07:52:21;95265.06;;;21.46;55.46
69524;BME280;56723;42.694;23.286;2022-09-09T07:54:53;95262.22;;;21.59;52.86
69524;BME280;56723;42.694;23.286;2022-09-09T07:57:20;95266.91;;;21.57;53.16
69524;BME280;56723;42.694;23.286;2022-09-09T07:59:50;95262.56;;;21.51;53.33
69524;BME280;56723;42.694;23.286;2022-09-09T08:02:17;95261.63;;;21.46;52.93
69524;BME280;56723;42.694;23.286;2022-09-09T08:04:44;95257.97;;;21.58;53.52
69524;BME280;56723;42.694;23.286;2022-09-09T08:07:13;95262.34;;;21.76;54.07
69524;BME280;56723;42.694;23.286;2022-09-09T08:09:49;95258.22;;;21.92;52.82
69524;BME280;56723;42.694;23.286;2022-09-09T08:12:23;95252.84;;;22.10;52.69
69524;BME280;56723;42.694;23.286;2022-09-09T08:14:51;95259.94;;;22.33;49.68
69524;BME280;56723;42.694;23.286;2022-09-09T08:17:22;95268.66;;;22.33;50.11
69524;BME280;56723;42.694;23.286;2022-09-09T08:19:50;95256.97;;;22.41;50.97
69524;BME280;56723;42.694;23.286;2022-09-09T08:22:21;95257.50;;;22.55;49.35
69524;BME280;56723;42.694;23.286;2022-09-09T08:24:49;95261.72;;;22.67;49.41
69524;BME280;56723;42.694;23.286;2022-09-09T08:27:17;95256.66;;;22.77;48.23
69524;BME280;56723;42.694;23.286;2022-09-09T08:29:44;95250.41;;;22.84;48.09
69524;BME280;56723;42.694;23.286;2022-09-09T08:32:11;95233.97;;;22.93;47.77
69524;BME280;56723;42.694;23.286;2022-09-09T08:34:39;95243.31;;;23.12;46.88
69524;BME280;56723;42.694;23.286;2022-09-09T08:37:11;95249.66;;;23.28;46.77
69524;BME280;56723;42.694;23.286;2022-09-09T08:39:40;95244.69;;;23.32;47.27
69524;BME280;56723;42.694;23.286;2022-09-09T08:42:27;95245.66;;;23.26;47.33
69524;BME280;56723;42.694;23.286;2022-09-09T08:45:29;95251.88;;;23.20;48.00
69524;BME280;56723;42.694;23.286;2022-09-09T08:50:30;95240.34;;;23.54;47.25
69524;BME280;56723;42.694;23.286;2022-09-09T08:58:21;95238.13;;;24.01;44.86
69524;BME280;56723;42.694;23.286;2022-09-09T09:09:27;95239.06;;;24.50;44.50
69524;BME280;56723;42.694;23.286;2022-09-09T09:12:00;95229.78;;;24.48;44.31
69524;BME280;56723;42.694;23.286;2022-09-09T09:14:35;95234.25;;;24.91;43.65
69524;BME280;56723;42.694;23.286;2022-09-09T09:17:12;95237.38;;;25.10;43.50
69524;BME280;56723;42.694;23.286;2022-09-09T09:19:43;95233.09;;;25.04;42.92
69524;BME280;56723;42.694;23.286;2022-09-09T09:22:19;95234.47;;;25.11;43.82
69524;BME280;56723;42.694;23.286;2022-09-09T09:30:29;95227.19;;;24.97;42.97
69524;BME280;56723;42.694;23.286;2022-09-09T09:33:20;95234.13;;;24.81;43.73
69524;BME280;56723;42.694;23.286;2022-09-09T09:35:50;95218.78;;;24.83;43.64
69524;BME280;56723;42.694;23.286;2022-09-09T09:38:19;95227.19;;;24.97;43.62
69524;BME280;56723;42.694;23.286;2022-09-09T09:41:09;95216.53;;;25.18;43.22
69524;BME280;56723;42.694;23.286;2022-09-09T09:43:37;95206.00;;;25.29;43.02
69524;BME280;56723;42.694;23.286;2022-09-09T09:46:21;95211.34;;;25.34;42.64
69524;BME280;56723;42.694;23.286;2022-09-09T09:49:03;95206.47;;;25.21;42.39
69524;BME280;56723;42.694;23.286;2022-09-09T09:51:34;95213.31;;;25.16;42.26
69524;BME280;56723;42.694;23.286;2022-09-09T09:54:21;95210.63;;;25.11;42.95
69524;BME280;56723;42.694;23.286;2022-09-09T09:56:54;95209.06;;;25.15;43.21
69524;BME280;56723;42.694;23.286;2022-09-09T09:59:41;95194.69;;;25.11;42.46
69524;BME280;56723;42.694;23.286;2022-09-09T10:02:25;95194.66;;;25.06;43.15
69524;BME280;56723;42.694;23.286;2022-09-09T10:05:13;95201.47;;;24.97;43.42
69524;BME280;56723;42.694;23.286;2022-09-09T10:07:45;95205.16;;;24.96;44.37
69524;BME280;56723;42.694;23.286;2022-09-09T10:10:21;95214.56;;;24.87;43.83
69524;BME280;56723;42.694;23.286;2022-09-09T10:12:59;95224.59;;;24.80;43.72
69524;BME280;56723;42.694;23.286;2022-09-09T10:26:58;95208.78;;;24.63;44.86
69524;BME280;56723;42.694;23.286;2022-09-09T10:34:58;95213.34;;;24.68;44.74
69524;BME280;56723;42.694;23.286;2022-09-09T10:40:36;95220.75;;;24.71;45.75
69524;BME280;56723;42.694;23.286;2022-09-09T10:46:09;95225.91;;;24.56;45.48
69524;BME280;56723;42.694;23.286;2022-09-09T10:51:40;95223.69;;;24.47;46.08
69524;BME280;56723;42.694;23.286;2022-09-09T10:54:16;95226.81;;;24.44;46.30
69524;BME280;56723;42.694;23.286;2022-09-09T10:56:54;95225.22;;;24.43;46.81
69524;BME280;56723;42.694;23.286;2022-09-09T10:59:30;95216.28;;;24.49;46.77
69524;BME280;56723;42.694;23.286;2022-09-09T11:02:27;95221.28;;;24.46;46.66
69524;BME280;56723;42.694;23.286;2022-09-09T11:05:19;95214.31;;;24.40;46.59
69524;BME280;56723;42.694;23.286;2022-09-09T11:07:56;95223.56;;;24.37;46.99
69524;BME280;56723;42.694;23.286;2022-09-09T11:11:34;95225.63;;;24.35;47.98
69524;BME280;56723;42.694;23.286;2022-09-09T11:13:39;95215.91;;;24.41;47.31
69524;BME280;56723;42.694;23.286;2022-09-09T11:16:25;95209.66;;;24.47;47.63
69524;BME280;56723;42.694;23.286;2022-09-09T11:19:02;95206.06;;;24.58;48.22
69524;BME280;56723;42.694;23.286;2022-09-09T11:21:42;95197.97;;;24.70;48.11
69524;BME280;56723;42.694;23.286;2022-09-09T11:27:02;95210.16;;;24.71;48.30
69524;BME280;56723;42.694;23.286;2022-09-09T11:32:56;95183.47;;;24.77;48.84
69524;BME280;56723;42.694;23.286;2022-09-09T11:35:33;95177.94;;;24.79;49.36
69524;BME280;56723;42.694;23.286;2022-09-09T11:38:25;95167.41;;;24.89;49.49
69524;BME280;56723;42.694;23.286;2022-09-09T11:40:56;95157.50;;;25.01;47.79
69524;BME280;56723;42.694;23.286;2022-09-09T11:46:15;95150.91;;;25.09;47.69
69524;BME280;56723;42.694;23.286;2022-09-09T11:48:45;95142.72;;;25.10;48.22
69524;BME280;56723;42.694;23.286;2022-09-09T11:51:26;95127.34;;;25.12;48.96
69524;BME280;56723;42.694;23.286;2022-09-09T11:56:32;95133.38;;;25.35;48.59
69524;BME280;56723;42.694;23.286;2022-09-09T12:01:29;95137.34;;;25.69;47.63
69524;BME280;56723;42.694;23.286;2022-09-09T12:04:28;95128.72;;;25.94;46.83
69524;BME280;56723;42.694;23.286;2022-09-09T12:07:04;95132.19;;;25.95;46.43
69524;BME280;56723;42.694;23.286;2022-09-09T12:12:07;95111.53;;;26.12;47.27
69524;BME280;56723;42.694;23.286;2022-09-09T12:15:02;95112.63;;;26.16;46.78
69524;BME280;56723;42.694;23.286;2022-09-09T12:17:31;95106.53;;;26.26;46.41
69524;BME280;56723;42.694;23.286;2022-09-09T12:20:11;95106.34;;;26.32;45.87
69524;BME280;56723;42.694;23.286;2022-09-09T12:31:14;95096.09;;;27.17;44.73
69524;BME280;56723;42.694;23.286;2022-09-09T12:33:45;95094.50;;;27.06;44.38
69524;BME280;56723;42.694;23.286;2022-09-09T12:36:18;95092.63;;;26.96;44.40
69524;BME280;56723;42.694;23.286;2022-09-09T12:38:46;95094.25;;;27.02;44.63
69524;BME280;56723;42.694;23.286;2022-09-09T12:41:21;95087.59;;;27.15;44.50
69524;BME280;56723;42.694;23.286;2022-09-09T12:43:49;95084.66;;;27.16;43.28
69524;BME280;56723;42.694;23.286;2022-09-09T12:46:32;95086.00;;;27.04;43.00
69524;BME280;56723;42.694;23.286;2022-09-09T12:49:03;95082.75;;;26.91;43.90
69524;BME280;56723;42.694;23.286;2022-09-09T12:51:32;95079.81;;;26.73;44.41
69524;BME280;56723;42.694;23.286;2022-09-09T12:54:00;95068.13;;;26.79;43.02
69524;BME280;56723;42.694;23.286;2022-09-09T12:56:32;95081.22;;;27.01;42.54
69524;BME280;56723;42.694;23.286;2022-09-09T12:58:59;95077.75;;;26.95;41.93
69524;BME280;56723;42.694;23.286;2022-09-09T13:01:28;95072.09;;;26.56;43.67
69524;BME280;56723;42.694;23.286;2022-09-09T13:03:56;95076.59;;;26.40;44.01
69524;BME280;56723;42.694;23.286;2022-09-09T13:06:25;95075.00;;;26.34;44.28
69524;BME280;56723;42.694;23.286;2022-09-09T13:09:00;95071.47;;;26.23;44.96
69524;BME280;56723;42.694;23.286;2022-09-09T13:11:39;95069.59;;;26.19;45.36
69524;BME280;56723;42.694;23.286;2022-09-09T13:14:35;95064.53;;;26.12;45.89
69524;BME280;56723;42.694;23.286;2022-09-09T13:17:05;95061.84;;;26.07;45.93
69524;BME280;56723;42.694;23.286;2022-09-09T13:19:36;95051.72;;;25.94;46.53
69524;BME280;56723;42.694;23.286;2022-09-09T13:22:16;95049.06;;;25.99;46.87
69524;BME280;56723;42.694;23.286;2022-09-09T13:24:46;95051.19;;;25.92;47.09
69524;BME280;56723;42.694;23.286;2022-09-09T13:27:32;95045.63;;;25.94;46.65
69524;BME280;56723;42.694;23.286;2022-09-09T13:30:00;95038.16;;;25.91;46.21
69524;BME280;56723;42.694;23.286;2022-09-09T13:32:28;95036.31;;;25.91;45.86
69524;BME280;56723;42.694;23.286;2022-09-09T13:35:00;95035.00;;;25.99;46.54
69524;BME280;56723;42.694;23.286;2022-09-09T13:37:35;95042.44;;;26.02;46.02
69524;BME280;56723;42.694;23.286;2022-09-09T13:40:04;95041.38;;;26.03;45.86
69524;BME280;56723;42.694;23.286;2022-09-09T13:42:37;95037.66;;;25.94;45.76
69524;BME280;56723;42.694;23.286;2022-09-09T13:45:14;95029.44;;;26.00;45.29
69524;BME280;56723;42.694;23.286;2022-09-09T13:47:42;95018.28;;;26.03;46.07
69524;BME280;56723;42.694;23.286;2022-09-09T13:50:18;95019.66;;;26.11;45.10
69524;BME280;56723;42.694;23.286;2022-09-09T13:52:50;95028.88;;;25.98;42.54
69524;BME280;56723;42.694;23.286;2022-09-09T13:55:21;95019.59;;;25.91;42.06
69524;BME280;56723;42.694;23.286;2022-09-09T14:00:29;95007.41;;;26.05;42.80
69524;BME280;56723;42.694;23.286;2022-09-09T14:02:56;95015.66;;;26.18;43.85
69524;BME280;56723;42.694;23.286;2022-09-09T14:05:23;95026.31;;;26.13;44.95
69524;BME280;56723;42.694;23.286;2022-09-09T14:07:51;95010.38;;;26.29;44.09
69524;BME280;56723;42.694;23.286;2022-09-09T14:10:19;95013.38;;;26.58;44.08
69524;BME280;56723;42.694;23.286;2022-09-09T14:12:46;95009.66;;;26.69;42.47
69524;BME280;56723;42.694;23.286;2022-09-09T14:15:13;95004.06;;;26.75;41.30
69524;BME280;56723;42.694;23.286;2022-09-09T14:17:41;95012.31;;;26.69;41.05
69524;BME280;56723;42.694;23.286;2022-09-09T14:20:09;95010.47;;;26.69;40.71
69524;BME280;56723;42.694;23.286;2022-09-09T14:22:38;94997.16;;;26.64;41.87
69524;BME280;56723;42.694;23.286;2022-09-09T14:25:06;94998.50;;;26.82;41.14
69524;BME280;56723;42.694;23.286;2022-09-09T14:27:33;95001.69;;;26.84;41.37
69524;BME280;56723;42.694;23.286;2022-09-09T14:30:00;94996.38;;;26.94;41.21
69524;BME280;56723;42.694;23.286;2022-09-09T14:32:28;94993.16;;;26.92;40.45
69524;BME280;56723;42.694;23.286;2022-09-09T14:34:55;95004.31;;;27.09;40.45
69524;BME280;56723;42.694;23.286;2022-09-09T14:37:22;95000.38;;;27.07;41.25
69524;BME280;56723;42.694;23.286;2022-09-09T14:39:50;94999.56;;;27.06;42.35
69524;BME280;56723;42.694;23.286;2022-09-09T14:42:17;94990.75;;;27.21;42.35
69524;BME280;56723;42.694;23.286;2022-09-09T14:44:55;95001.63;;;27.35;42.63
69524;BME280;56723;42.694;23.286;2022-09-09T14:47:22;95003.75;;;27.38;42.27
69524;BME280;56723;42.694;23.286;2022-09-09T14:49:49;94996.56;;;27.33;42.09
69524;BME280;56723;42.694;23.286;2022-09-09T14:52:16;94990.50;;;27.12;42.08
69524;BME280;56723;42.694;23.286;2022-09-09T14:54:43;94993.72;;;27.04;42.48
69524;BME280;56723;42.694;23.286;2022-09-09T14:57:10;94997.97;;;26.90;42.95
69524;BME280;56723;42.694;23.286;2022-09-09T14:59:37;95006.47;;;26.67;43.24
69524;BME280;56723;42.694;23.286;2022-09-09T15:02:04;95009.13;;;26.46;43.91
69524;BME280;56723;42.694;23.286;2022-09-09T15:04:31;95017.06;;;26.36;44.37
69524;BME280;56723;42.694;23.286;2022-09-09T15:06:59;95012.22;;;26.23;44.40
69524;BME280;56723;42.694;23.286;2022-09-09T15:09:25;95010.91;;;26.26;44.69